createdAt,value
2019-02-17T00:00:05.009Z,73.80
2019-02-17T00:02:35.999Z,77.72
2019-02-17T00:05:06.938Z,65.62
2019-02-17T00:07:38.952Z,35.43
2019-02-17T00:10:09.851Z,18.92
2019-02-17T00:12:41.872Z,18.87
2019-02-17T00:15:13.034Z,20.08
2019-02-17T00:17:43.655Z,17.70
2019-02-17T00:20:14.457Z,20.05
2019-02-17T00:22:45.217Z,17.82
2019-02-17T00:25:16.275Z,17.07
2019-02-17T00:27:47.068Z,23.70
2019-02-17T00:30:18.587Z,16.15
2019-02-17T00:32:49.323Z,18.12
2019-02-17T00:35:20.097Z,17.77
2019-02-17T00:37:51.113Z,16.23
2019-02-17T00:40:22.196Z,15.78
2019-02-17T00:42:54.274Z,14.60
2019-02-17T00:45:24.926Z,18.90
2019-02-17T00:47:55.822Z,16.42
2019-02-17T00:50:26.465Z,15.58
2019-02-17T00:52:57.324Z,14.60
2019-02-17T00:55:27.994Z,15.32
2019-02-17T00:57:58.730Z,15.97
2019-02-17T01:00:29.467Z,13.78
2019-02-17T01:03:00.131Z,15.58
2019-02-17T01:05:33.226Z,16.40
2019-02-17T01:08:06.927Z,15.10
2019-02-17T01:10:37.757Z,15.20
2019-02-17T01:13:08.568Z,15.45
2019-02-17T01:15:39.417Z,19.70
2019-02-17T01:18:10.097Z,14.43
2019-02-17T01:20:41.039Z,14.73
2019-02-17T01:23:11.719Z,16.90
2019-02-17T01:25:42.716Z,12.23
2019-02-17T01:28:13.417Z,13.27
2019-02-17T01:30:44.486Z,17.77
2019-02-17T01:33:15.353Z,14.00
2019-02-17T01:35:46.226Z,17.30
2019-02-17T01:38:16.823Z,15.63
2019-02-17T01:40:48.846Z,15.23
2019-02-17T01:43:19.407Z,15.20
2019-02-17T01:45:50.070Z,14.70
2019-02-17T01:48:20.903Z,15.08
2019-02-17T01:50:51.483Z,15.25
2019-02-17T01:53:22.161Z,17.15
2019-02-17T01:55:52.883Z,15.20
2019-02-17T01:58:24.096Z,14.67
2019-02-17T02:00:54.932Z,13.72
2019-02-17T02:03:25.806Z,16.62
2019-02-17T02:05:56.427Z,13.85
2019-02-17T02:08:27.221Z,15.65
2019-02-17T02:10:57.972Z,16.73
2019-02-17T02:13:29.787Z,14.25
2019-02-17T02:16:00.666Z,16.03
2019-02-17T02:18:32.287Z,19.27
2019-02-17T02:21:02.932Z,13.85
2019-02-17T02:23:33.642Z,12.93
2019-02-17T02:26:04.712Z,15.25
2019-02-17T02:28:35.544Z,16.93
2019-02-17T02:31:06.345Z,15.75
2019-02-17T02:33:37.370Z,15.80
2019-02-17T02:36:07.903Z,14.68
2019-02-17T02:38:38.687Z,15.08
2019-02-17T02:41:09.363Z,14.90
2019-02-17T02:43:46.588Z,15.90
2019-02-17T02:46:17.397Z,14.80
2019-02-17T02:48:48.387Z,13.83
2019-02-17T02:51:19.176Z,16.35
2019-02-17T02:53:50.206Z,14.43
2019-02-17T02:56:22.225Z,14.23
2019-02-17T02:58:53.051Z,14.38
2019-02-17T03:01:23.852Z,16.42
2019-02-17T03:03:54.530Z,16.40
2019-02-17T03:06:37.903Z,15.13
2019-02-17T03:09:09.083Z,15.40
2019-02-17T03:11:40.401Z,14.55
2019-02-17T03:14:13.453Z,17.52
2019-02-17T03:16:44.165Z,17.07
2019-02-17T03:19:14.817Z,14.47
2019-02-17T03:21:45.484Z,16.30
2019-02-17T03:24:18.840Z,17.65
2019-02-17T03:26:49.784Z,13.85
2019-02-17T03:29:20.425Z,13.68
2019-02-17T03:31:51.286Z,16.42
2019-02-17T03:34:23.033Z,12.85
2019-02-17T03:36:53.793Z,15.35
2019-02-17T03:39:24.500Z,14.38
2019-02-17T03:41:55.771Z,15.08
2019-02-17T03:44:26.674Z,16.85
2019-02-17T03:46:57.299Z,17.65
2019-02-17T03:49:28.197Z,21.05
2019-02-17T03:51:59.223Z,15.63
2019-02-17T03:54:29.842Z,17.67
2019-02-17T03:57:20.837Z,14.93
2019-02-17T03:59:51.484Z,17.23
2019-02-17T04:02:22.357Z,16.23
2019-02-17T04:04:53.193Z,18.73
2019-02-17T04:07:24.304Z,15.53
2019-02-17T04:09:55.132Z,18.45
2019-02-17T04:12:25.906Z,15.03
2019-02-17T04:14:57.793Z,12.73
2019-02-17T04:17:28.942Z,14.83
2019-02-17T04:19:59.688Z,15.95
2019-02-17T04:22:30.440Z,16.62
2019-02-17T04:25:01.305Z,17.42
2019-02-17T04:27:31.848Z,21.30
2019-02-17T04:30:02.356Z,17.23
2019-02-17T04:32:33.103Z,15.63
2019-02-17T04:35:03.808Z,19.97
2019-02-17T04:37:34.374Z,18.25
2019-02-17T04:40:05.409Z,17.32
2019-02-17T04:42:36.082Z,23.70
2019-02-17T04:45:08.269Z,18.57
2019-02-17T04:47:38.951Z,17.82
2019-02-17T04:50:09.762Z,18.73
2019-02-17T04:52:40.849Z,20.80
2019-02-17T04:55:11.615Z,18.82
2019-02-17T04:57:45.891Z,20.48
2019-02-17T05:00:16.696Z,23.40
2019-02-17T05:02:47.621Z,22.37
2019-02-17T05:05:18.447Z,19.02
2019-02-17T05:07:48.951Z,21.75
2019-02-17T05:10:19.520Z,28.80
2019-02-17T05:12:50.231Z,19.95
2019-02-17T05:15:20.910Z,23.00
2019-02-17T05:17:51.615Z,21.53
2019-02-17T05:20:22.362Z,21.62
2019-02-17T05:22:52.986Z,22.10
2019-02-17T05:25:26.153Z,20.20
2019-02-17T05:27:57.905Z,19.70
2019-02-17T05:30:28.691Z,16.57
2019-02-17T05:32:59.392Z,19.87
2019-02-17T05:35:30.126Z,18.87
2019-02-17T05:38:02.009Z,17.47
2019-02-17T05:40:32.823Z,21.97
2019-02-17T05:43:03.914Z,22.77
2019-02-17T05:45:34.566Z,16.70
2019-02-17T05:48:05.635Z,19.77
2019-02-17T05:50:36.919Z,25.27
2019-02-17T05:53:08.151Z,18.37
2019-02-17T05:55:38.779Z,18.83
2019-02-17T05:58:09.990Z,18.07
2019-02-17T06:00:41.457Z,18.30
2019-02-17T06:03:11.908Z,18.50
2019-02-17T06:05:42.459Z,20.10
2019-02-17T06:08:13.241Z,17.70
2019-02-17T06:10:44.192Z,18.87
2019-02-17T06:13:14.967Z,19.13
2019-02-17T06:15:45.931Z,22.30
2019-02-17T06:18:18.125Z,24.00
2019-02-17T06:20:48.978Z,28.57
2019-02-17T06:23:19.468Z,22.40
2019-02-17T06:25:50.479Z,22.13
2019-02-17T06:28:21.457Z,24.07
2019-02-17T06:30:52.005Z,23.40
2019-02-17T06:33:22.720Z,21.73
2019-02-17T06:35:53.707Z,30.50
2019-02-17T06:38:24.565Z,25.33
2019-02-17T06:40:55.116Z,22.77
2019-02-17T06:43:26.177Z,25.97
2019-02-17T06:45:56.907Z,23.37
2019-02-17T06:48:27.654Z,23.73
2019-02-17T06:50:58.289Z,26.10
2019-02-17T06:53:30.643Z,24.90
2019-02-17T06:56:13.124Z,23.47
2019-02-17T06:58:44.312Z,27.97
2019-02-17T07:01:24.149Z,28.83
2019-02-17T07:03:48.548Z,27.67
2019-02-17T07:06:34.945Z,24.93
2019-02-17T07:09:06.250Z,31.03
2019-02-17T07:11:37.340Z,30.33
2019-02-17T07:14:07.795Z,27.27
2019-02-17T07:16:38.840Z,28.33
2019-02-17T07:19:12.002Z,25.70
2019-02-17T07:21:42.962Z,27.07
2019-02-17T07:24:13.570Z,30.03
2019-02-17T07:26:44.109Z,31.93
2019-02-17T07:29:16.769Z,30.83
2019-02-17T07:31:47.318Z,33.50
2019-02-17T07:34:17.728Z,36.60
2019-02-17T07:36:48.556Z,26.10
2019-02-17T07:39:21.638Z,28.63
2019-02-17T07:41:52.929Z,32.43
2019-02-17T07:44:23.606Z,32.17
2019-02-17T07:46:55.079Z,33.10
2019-02-17T07:49:25.913Z,37.43
2019-02-17T07:51:57.812Z,34.27
2019-02-17T07:54:28.485Z,30.30
2019-02-17T07:57:00.055Z,31.43
2019-02-17T07:59:30.530Z,37.40
2019-02-17T08:02:01.522Z,35.23
2019-02-17T08:04:32.429Z,41.43
2019-02-17T08:07:03.343Z,44.67
2019-02-17T08:09:33.945Z,36.30
2019-02-17T08:12:04.883Z,37.50
2019-02-17T08:14:35.950Z,40.37
2019-02-17T08:17:06.891Z,35.90
2019-02-17T08:19:39.706Z,39.17
2019-02-17T08:22:17.855Z,42.00
2019-02-17T08:24:49.390Z,37.53
2019-02-17T08:27:19.900Z,49.67
2019-02-17T08:29:51.639Z,51.87
2019-02-17T08:32:23.794Z,47.20
2019-02-17T08:34:54.498Z,50.30
2019-02-17T08:37:25.425Z,48.33
2019-02-17T08:39:56.630Z,50.17
2019-02-17T08:42:27.702Z,44.87
2019-02-17T08:44:58.379Z,40.33
2019-02-17T08:47:29.158Z,48.87
2019-02-17T08:49:59.979Z,49.60
2019-02-17T08:52:30.914Z,44.00
2019-02-17T08:55:03.771Z,46.47
2019-02-17T08:57:34.381Z,43.03
2019-02-17T09:00:05.214Z,52.23
2019-02-17T09:02:36.729Z,47.40
2019-02-17T09:05:07.400Z,34.33
2019-02-17T09:07:38.576Z,32.37
2019-02-17T09:10:10.767Z,22.83
2019-02-17T09:12:41.561Z,23.87
2019-02-17T09:15:13.222Z,22.87
2019-02-17T09:17:44.034Z,26.97
2019-02-17T09:20:15.054Z,24.37
2019-02-17T09:22:46.971Z,25.00
2019-02-17T09:25:17.623Z,29.03
2019-02-17T09:27:48.355Z,32.83
2019-02-17T09:30:19.653Z,23.10
2019-02-17T09:32:50.465Z,27.23
2019-02-17T09:35:26.716Z,25.53
2019-02-17T09:37:58.487Z,27.43
2019-02-17T09:40:30.696Z,24.33
2019-02-17T09:43:05.140Z,30.50
2019-02-17T09:45:35.910Z,24.80
2019-02-17T09:48:06.979Z,23.00
2019-02-17T09:50:37.952Z,25.33
2019-02-17T09:53:08.764Z,23.13
2019-02-17T09:55:39.651Z,29.70
2019-02-17T09:58:11.494Z,25.10
2019-02-17T10:00:42.319Z,29.60
2019-02-17T10:03:13.381Z,29.77
2019-02-17T10:05:44.278Z,24.90
2019-02-17T10:08:15.510Z,30.93
2019-02-17T10:10:46.555Z,30.70
2019-02-17T10:13:18.686Z,24.10
2019-02-17T10:15:49.935Z,22.60
2019-02-17T10:18:23.484Z,28.33
2019-02-17T10:20:54.974Z,22.93
2019-02-17T10:23:27.961Z,26.13
2019-02-17T10:25:58.688Z,22.10
2019-02-17T10:28:30.663Z,29.87
2019-02-17T10:31:02.568Z,28.47
2019-02-17T10:33:33.593Z,29.67
2019-02-17T10:36:04.359Z,26.10
2019-02-17T10:38:35.439Z,23.07
2019-02-17T10:41:06.500Z,24.93
2019-02-17T10:43:38.171Z,28.47
2019-02-17T10:46:09.061Z,21.43
2019-02-17T10:48:40.440Z,27.00
2019-02-17T10:51:11.810Z,22.87
2019-02-17T10:53:42.728Z,26.20
2019-02-17T10:56:14.048Z,21.13
2019-02-17T10:58:45.552Z,26.93
2019-02-17T11:01:17.182Z,22.57
2019-02-17T11:04:03.493Z,24.27
2019-02-17T11:06:34.610Z,19.97
2019-02-17T11:09:19.044Z,28.30
2019-02-17T11:11:49.779Z,24.30
2019-02-17T11:14:20.726Z,20.03
2019-02-17T11:16:52.910Z,19.20
2019-02-17T11:19:23.470Z,18.53
2019-02-17T11:21:54.546Z,25.60
2019-02-17T11:24:29.592Z,30.13
2019-02-17T11:27:01.055Z,29.90
2019-02-17T11:29:32.443Z,27.20
2019-02-17T11:32:04.097Z,29.13
2019-02-17T11:34:39.719Z,32.43
2019-02-17T11:37:10.382Z,43.03
2019-02-17T11:39:41.256Z,33.10
2019-02-17T11:42:11.737Z,35.70
2019-02-17T11:44:42.691Z,35.57
2019-02-17T11:47:13.209Z,31.60
2019-02-17T11:49:43.856Z,34.63
2019-02-17T11:52:14.555Z,34.47
2019-02-17T11:54:44.947Z,29.70
2019-02-17T11:57:15.641Z,34.70
2019-02-17T11:59:46.688Z,31.50
2019-02-17T12:02:24.714Z,32.67
2019-02-17T12:04:50.246Z,30.90
2019-02-17T12:07:20.798Z,31.20
2019-02-17T12:09:51.560Z,32.90
2019-02-17T12:12:22.588Z,33.50
2019-02-17T12:14:53.240Z,30.57
2019-02-17T12:17:23.995Z,34.50
2019-02-17T12:20:04.299Z,36.10
2019-02-17T12:22:42.915Z,35.00
2019-02-17T12:25:52.013Z,32.40
2019-02-17T12:28:42.419Z,34.90
2019-02-17T12:31:18.156Z,36.03
2019-02-17T12:33:50.946Z,35.10
2019-02-17T12:36:22.908Z,28.40
2019-02-17T12:38:55.973Z,32.63
2019-02-17T12:41:27.470Z,34.87
2019-02-17T12:43:59.339Z,33.27
2019-02-17T12:46:31.546Z,31.17
2019-02-17T12:49:02.058Z,34.70
2019-02-17T12:51:32.851Z,39.53
2019-02-17T12:54:03.566Z,34.60
2019-02-17T12:56:33.888Z,34.03
2019-02-17T12:59:04.540Z,35.03
2019-02-17T13:01:35.519Z,33.83
2019-02-17T13:04:06.020Z,35.50
2019-02-17T13:06:36.655Z,35.40
2019-02-17T13:09:09.482Z,33.20
2019-02-17T13:11:40.137Z,34.47
2019-02-17T13:14:12.272Z,29.53
2019-02-17T13:16:43.832Z,24.13
2019-02-17T13:19:14.880Z,27.27
2019-02-17T13:21:45.585Z,30.30
2019-02-17T13:24:16.269Z,30.07
2019-02-17T13:26:47.600Z,28.00
2019-02-17T13:29:19.242Z,25.93
2019-02-17T13:31:50.227Z,32.07
2019-02-17T13:34:21.004Z,26.70
2019-02-17T13:36:51.856Z,27.17
2019-02-17T13:39:22.607Z,31.40
2019-02-17T13:41:53.530Z,23.13
2019-02-17T13:44:24.662Z,28.47
2019-02-17T13:46:55.827Z,26.37
2019-02-17T13:49:26.634Z,29.20
2019-02-17T13:51:57.718Z,28.30
2019-02-17T13:54:28.550Z,33.63
2019-02-17T13:56:59.629Z,31.83
2019-02-17T13:59:30.486Z,31.50
2019-02-17T14:02:03.393Z,35.60
2019-02-17T14:04:34.513Z,34.27
2019-02-17T14:07:05.395Z,28.43
2019-02-17T14:09:35.966Z,30.03
2019-02-17T14:12:06.596Z,31.00
2019-02-17T14:14:38.894Z,35.80
2019-02-17T14:17:10.148Z,32.90
2019-02-17T14:19:41.064Z,28.53
2019-02-17T14:22:13.066Z,30.07
2019-02-17T14:24:43.493Z,28.20
2019-02-17T14:27:14.478Z,28.63
2019-02-17T14:29:45.194Z,37.13
2019-02-17T14:32:16.632Z,28.57
2019-02-17T14:34:48.794Z,26.90
2019-02-17T14:37:19.763Z,31.53
2019-02-17T14:39:52.410Z,31.23
2019-02-17T14:42:23.790Z,29.07
2019-02-17T14:44:54.956Z,29.57
2019-02-17T14:47:25.571Z,27.60
2019-02-17T14:49:56.874Z,34.53
2019-02-17T14:52:27.887Z,30.10
2019-02-17T14:54:59.589Z,31.80
2019-02-17T14:57:30.163Z,34.90
2019-02-17T15:00:01.801Z,45.63
2019-02-17T15:02:32.817Z,36.27
2019-02-17T15:05:03.503Z,40.33
2019-02-17T15:07:36.856Z,39.33
2019-02-17T15:10:09.063Z,39.03
2019-02-17T15:12:39.823Z,33.57
2019-02-17T15:15:11.386Z,31.57
2019-02-17T15:17:42.193Z,37.23
2019-02-17T15:20:13.399Z,37.23
2019-02-17T15:22:44.752Z,35.20
2019-02-17T15:25:17.583Z,27.50
2019-02-17T15:27:49.017Z,26.20
2019-02-17T15:30:20.575Z,28.90
2019-02-17T15:32:50.906Z,38.80
2019-02-17T15:35:22.527Z,34.40
2019-02-17T15:37:55.840Z,31.07
2019-02-17T15:40:26.773Z,27.63
2019-02-17T15:42:57.110Z,41.50
2019-02-17T15:45:28.062Z,37.43
2019-02-17T15:47:58.707Z,37.60
2019-02-17T15:50:29.114Z,64.57
2019-02-17T15:52:59.555Z,62.43
2019-02-17T15:55:30.030Z,50.60
2019-02-17T15:58:01.221Z,49.30
2019-02-17T16:00:36.274Z,66.60
2019-02-17T16:03:06.842Z,63.53
2019-02-17T16:05:37.412Z,62.20
2019-02-17T16:08:08.230Z,63.60
2019-02-17T16:10:40.722Z,61.93
2019-02-17T16:13:11.747Z,67.40
2019-02-17T16:15:43.020Z,83.43
2019-02-17T16:18:13.562Z,80.83
2019-02-17T16:20:45.716Z,87.33
2019-02-17T16:23:16.476Z,98.30
2019-02-17T16:25:49.722Z,107.93
2019-02-17T16:28:20.763Z,109.67
2019-02-17T16:30:51.576Z,145.47
2019-02-17T16:33:22.750Z,127.47
2019-02-17T16:35:53.094Z,123.07
2019-02-17T16:38:24.206Z,132.17
2019-02-17T16:40:59.750Z,110.80
2019-02-17T16:43:31.748Z,139.00
2019-02-17T16:46:02.211Z,134.13
2019-02-17T16:48:35.325Z,143.37
2019-02-17T16:51:06.166Z,166.60
2019-02-17T16:53:37.593Z,109.30
2019-02-17T16:56:08.494Z,152.77
2019-02-17T16:58:39.464Z,153.43
2019-02-17T17:01:13.033Z,96.17
2019-02-17T17:03:46.120Z,80.23
2019-02-17T17:06:19.257Z,98.60
2019-02-17T17:08:50.050Z,101.73
2019-02-17T17:11:20.839Z,73.43
2019-02-17T17:13:51.876Z,76.70
2019-02-17T17:16:25.756Z,73.80
2019-02-17T17:18:56.659Z,84.37
2019-02-17T17:21:27.811Z,56.83
2019-02-17T17:24:01.288Z,79.93
2019-02-17T17:26:31.778Z,77.03
2019-02-17T17:29:02.737Z,68.40
2019-02-17T17:31:34.748Z,94.27
2019-02-17T17:34:05.783Z,61.63
2019-02-17T17:36:38.824Z,77.07
2019-02-17T17:39:10.498Z,89.40
2019-02-17T17:41:44.699Z,103.43
2019-02-17T17:44:16.937Z,89.93
2019-02-17T17:46:49.048Z,78.27
2019-02-17T17:49:19.742Z,79.17
2019-02-17T17:51:50.611Z,82.77
2019-02-17T17:54:21.823Z,76.17
2019-02-17T17:56:52.552Z,64.80
2019-02-17T17:59:23.253Z,77.37
2019-02-17T18:01:54.270Z,73.23
2019-02-17T18:04:25.526Z,80.23
2019-02-17T18:06:57.158Z,74.07
2019-02-17T18:09:27.839Z,71.77
2019-02-17T18:11:59.907Z,115.83
2019-02-17T18:14:30.794Z,98.07
2019-02-17T18:17:01.612Z,90.23
2019-02-17T18:19:33.314Z,96.70
2019-02-17T18:22:03.963Z,98.93
2019-02-17T18:24:38.698Z,104.40
2019-02-17T18:27:09.097Z,107.50
2019-02-17T18:29:40.005Z,100.80
2019-02-17T18:32:11.119Z,122.10
2019-02-17T18:34:41.899Z,107.73
2019-02-17T18:37:12.331Z,102.67
2019-02-17T18:39:42.929Z,87.67
2019-02-17T18:42:14.747Z,113.60
2019-02-17T18:44:45.403Z,116.40
2019-02-17T18:47:16.911Z,93.30
2019-02-17T18:49:48.335Z,87.67
2019-02-17T18:52:19.623Z,120.30
2019-02-17T18:54:52.702Z,130.43
2019-02-17T18:57:25.599Z,147.30
2019-02-17T18:59:57.088Z,178.87
2019-02-17T19:02:27.821Z,150.10
2019-02-17T19:05:01.072Z,119.67
2019-02-17T19:07:32.119Z,97.03
2019-02-17T19:10:03.118Z,96.33
2019-02-17T19:12:36.833Z,81.43
2019-02-17T19:15:08.669Z,83.50
2019-02-17T19:17:42.201Z,99.87
2019-02-17T19:20:15.908Z,93.30
2019-02-17T19:22:50.281Z,87.03
2019-02-17T19:25:21.441Z,78.80
2019-02-17T19:27:52.485Z,81.87
2019-02-17T19:30:23.551Z,69.27
2019-02-17T19:32:54.196Z,69.30
2019-02-17T19:35:25.403Z,68.77
2019-02-17T19:37:56.990Z,68.67
2019-02-17T19:40:28.658Z,77.30
2019-02-17T19:42:59.506Z,66.43
2019-02-17T19:45:30.618Z,76.13
2019-02-17T19:48:04.142Z,78.80
2019-02-17T19:50:35.592Z,90.50
2019-02-17T19:53:06.573Z,82.37
2019-02-17T19:55:38.270Z,82.37
2019-02-17T19:58:10.039Z,79.37
2019-02-17T20:00:41.031Z,90.63
2019-02-17T20:03:37.859Z,94.63
2019-02-17T20:06:09.114Z,79.50
2019-02-17T20:08:39.854Z,72.80
2019-02-17T20:11:10.323Z,66.60
2019-02-17T20:13:41.793Z,68.07
2019-02-17T20:16:12.333Z,70.30
2019-02-17T20:18:43.131Z,81.53
2019-02-17T20:21:14.721Z,86.10
2019-02-17T20:23:46.900Z,82.43
2019-02-17T20:26:18.206Z,82.57
2019-02-17T20:28:57.256Z,80.07
2019-02-17T20:31:27.058Z,78.30
2019-02-17T20:33:57.791Z,76.80
2019-02-17T20:36:28.641Z,81.73
2019-02-17T20:38:59.526Z,93.37
2019-02-17T20:41:30.909Z,72.17
2019-02-17T20:44:02.904Z,61.40
2019-02-17T20:46:34.430Z,54.30
2019-02-17T20:49:05.472Z,43.80
2019-02-17T20:51:36.175Z,43.90
2019-02-17T20:54:07.151Z,46.03
2019-02-17T20:56:38.531Z,38.53
2019-02-17T20:59:10.976Z,44.73
2019-02-17T21:01:42.705Z,45.70
2019-02-17T21:04:13.803Z,52.70
2019-02-17T21:06:48.061Z,43.17
2019-02-17T21:09:20.092Z,37.07
2019-02-17T21:11:51.309Z,52.63
2019-02-17T21:14:22.443Z,50.10
2019-02-17T21:16:53.390Z,45.57
2019-02-17T21:19:24.905Z,48.23
2019-02-17T21:21:55.575Z,48.07
2019-02-17T21:24:27.039Z,46.17
2019-02-17T21:26:58.364Z,39.90
2019-02-17T21:29:30.212Z,45.83
2019-02-17T21:32:00.984Z,46.70
2019-02-17T21:34:31.995Z,45.23
2019-02-17T21:37:03.957Z,44.00
2019-02-17T21:39:34.345Z,41.83
2019-02-17T21:42:05.309Z,39.97
2019-02-17T21:44:36.191Z,41.77
2019-02-17T21:47:07.215Z,30.40
2019-02-17T21:49:38.444Z,36.63
2019-02-17T21:52:09.565Z,26.90
2019-02-17T21:54:39.988Z,31.43
2019-02-17T21:57:10.968Z,23.80
2019-02-17T21:59:42.443Z,32.93
2019-02-17T22:02:14.172Z,27.97
2019-02-17T22:04:45.425Z,43.83
2019-02-17T22:07:16.977Z,39.20
2019-02-17T22:09:48.178Z,42.87
2019-02-17T22:12:19.049Z,35.93
2019-02-17T22:14:50.169Z,45.57
2019-02-17T22:17:21.117Z,40.73
2019-02-17T22:19:51.811Z,43.20
2019-02-17T22:22:23.052Z,37.07
2019-02-17T22:24:54.150Z,39.23
2019-02-17T22:27:25.171Z,38.77
2019-02-17T22:29:56.439Z,37.33
2019-02-17T22:32:28.443Z,33.53
2019-02-17T22:34:59.222Z,33.30
2019-02-17T22:37:29.849Z,32.50
2019-02-17T22:40:00.615Z,30.93
2019-02-17T22:42:31.503Z,39.67
2019-02-17T22:45:02.325Z,34.37
2019-02-17T22:47:33.230Z,40.20
2019-02-17T22:50:07.617Z,35.00
2019-02-17T22:52:38.680Z,42.70
2019-02-17T22:55:10.203Z,30.60
2019-02-17T22:57:40.960Z,24.03
2019-02-17T23:00:18.938Z,27.50
2019-02-17T23:02:49.770Z,29.50
2019-02-17T23:05:20.596Z,26.27
2019-02-17T23:07:51.589Z,23.13
2019-02-17T23:10:22.413Z,24.97
2019-02-17T23:12:52.963Z,22.67
2019-02-17T23:15:24.156Z,23.53
2019-02-17T23:17:54.993Z,23.00
2019-02-17T23:20:26.209Z,21.17
2019-02-17T23:22:57.242Z,20.03
2019-02-17T23:25:28.675Z,27.10
2019-02-17T23:27:59.196Z,22.43
2019-02-17T23:30:30.074Z,22.47
2019-02-17T23:33:02.087Z,26.73
2019-02-17T23:35:34.350Z,20.97
2019-02-17T23:38:05.238Z,22.67
2019-02-17T23:40:36.334Z,21.57
2019-02-17T23:43:07.034Z,26.53
2019-02-17T23:45:37.966Z,23.77
2019-02-17T23:48:08.849Z,22.73
2019-02-17T23:50:40.114Z,23.20
2019-02-17T23:53:11.116Z,22.53
2019-02-17T23:55:42.056Z,23.97
2019-02-17T23:58:12.831Z,23.23
